Time;durP1;ratioP1;P1;durP2;ratioP2;P2;SDS_P1;SDS_P2;PMS_P1;PMS_P2;Temp;Humidity;BMP_temperature;BMP_pressure;BME280_temperature;BME280_humidity;BME280_pressure;Samples;Min_cycle;Max_cycle;Signal;HPM_P1;HPM_P2
2021/04/17 00:03:15;;;;;;;15.85;9.40;;;;;;;4.76;100.00;100677.76;716462;1174;114262;-80
2021/04/17 00:18:35;;;;;;;15.50;5.90;;;;;;;4.94;100.00;100660.27;716101;1199;113879;-80
2021/04/17 00:33:56;;;;;;;18.23;5.20;;;;;;;4.83;100.00;100667.88;716143;1203;114292;-81
2021/04/17 00:49:17;;;;;;;12.23;4.98;;;;;;;5.11;100.00;100661.88;716596;1199;114377;-81
2021/04/17 01:04:48;;;;;;;12.93;5.45;;;;;;;5.13;100.00;100665.23;720507;1163;114150;-87
2021/04/17 01:20:18;;;;;;;13.40;5.33;;;;;;;5.20;100.00;100650.11;717663;1200;113915;-81
2021/04/17 01:35:39;;;;;;;13.75;4.78;;;;;;;5.25;100.00;100636.80;714899;1166;113561;-73
2021/04/17 01:51:01;;;;;;;31.37;15.93;;;;;;;5.24;100.00;100633.38;714163;1186;113608;-72
2021/04/17 02:06:22;;;;;;;20.28;7.40;;;;;;;5.12;100.00;100642.75;714033;1178;114186;-72
2021/04/17 02:21:45;;;;;;;28.43;10.80;;;;;;;5.09;100.00;100648.12;713937;1203;113796;-74
2021/04/17 02:37:05;;;;;;;17.70;7.45;;;;;;;5.07;100.00;100643.94;713922;1184;113724;-72
2021/04/17 02:52:26;;;;;;;19.93;12.75;;;;;;;5.04;100.00;100636.33;713661;1184;113499;-72
2021/04/17 03:07:47;;;;;;;15.53;7.97;;;;;;;4.99;100.00;100632.23;713696;1200;113947;-74
2021/04/17 03:23:08;;;;;;;14.43;7.20;;;;;;;4.87;100.00;100630.38;713898;1203;113538;-73
2021/04/17 03:38:28;;;;;;;19.58;9.00;;;;;;;4.65;100.00;100641.99;713807;1204;113520;-73
2021/04/17 03:53:49;;;;;;;17.95;8.80;;;;;;;4.53;100.00;100647.05;713686;1199;113906;-72
2021/04/17 04:09:09;;;;;;;13.40;7.67;;;;;;;4.67;100.00;100660.09;713739;1184;113413;-73
2021/04/17 04:24:30;;;;;;;28.28;12.83;;;;;;;4.84;100.00;100659.13;713654;1200;113485;-72
2021/04/17 04:39:50;;;;;;;22.75;9.13;;;;;;;4.91;100.00;100650.06;716607;1179;113672;-72
2021/04/17 04:55:10;;;;;;;47.13;22.08;;;;;;;4.99;100.00;100675.62;713853;1183;113570;-72
2021/04/17 05:10:30;;;;;;;81.43;49.15;;;;;;;5.20;100.00;100680.47;713683;1200;113920;-73
2021/04/17 05:25:51;;;;;;;112.60;49.23;;;;;;;5.89;100.00;100693.69;713969;1200;114482;-73
2021/04/17 05:41:11;;;;;;;49.43;25.70;;;;;;;6.53;100.00;100678.36;714041;1200;113842;-73
2021/04/17 05:56:31;;;;;;;59.18;26.15;;;;;;;7.12;100.00;100690.18;714077;1183;113777;-74
2021/04/17 06:11:52;;;;;;;32.50;15.83;;;;;;;7.76;100.00;100702.37;714055;1200;113721;-74
2021/04/17 06:27:13;;;;;;;38.30;16.77;;;;;;;8.68;100.00;100697.59;714001;1177;113856;-74
2021/04/17 06:42:36;;;;;;;28.50;14.67;;;;;;;9.15;100.00;100703.69;714129;1200;113999;-71
2021/04/17 06:57:59;;;;;;;34.23;16.75;;;;;;;9.97;100.00;100705.27;714117;1200;113863;-75
2021/04/17 07:13:19;;;;;;;31.78;16.85;;;;;;;11.48;100.00;100723.66;714147;1190;113846;-75
2021/04/17 07:29:13;;;;;;;32.70;17.90;;;;;;;12.71;100.00;100710.42;714233;1200;114373;-77
2021/04/17 07:44:40;;;;;;;24.87;14.37;;;;;;;13.91;100.00;100707.25;714277;1200;113869;-72
2021/04/17 08:00:01;;;;;;;23.50;12.27;;;;;;;14.72;100.00;100710.90;714103;1176;114180;-73
2021/04/17 08:15:21;;;;;;;24.13;12.50;;;;;;;13.96;100.00;100710.28;714291;1179;114021;-73
2021/04/17 08:30:42;;;;;;;15.30;9.77;;;;;;;14.63;100.00;100717.91;714107;1200;23149;-75
2021/04/17 08:46:13;;;;;;;29.40;16.35;;;;;;;14.21;100.00;100729.00;714495;1200;23145;-76
2021/04/17 09:01:42;;;;;;;27.55;13.75;;;;;;;14.47;100.00;100715.92;714691;1203;23153;-75
2021/04/17 09:17:06;;;;;;;11.58;7.40;;;;;;;15.02;100.00;100727.33;714461;1205;23138;-73
2021/04/17 09:32:36;;;;;;;12.00;6.98;;;;;;;15.44;100.00;100718.69;714206;1200;26277;-70
2021/04/17 10:16:57;;;;;;;19.70;10.33;;;;;;;17.54;90.50;100708.92;714602;1187;23122;-72
2021/04/17 10:32:22;;;;;;;27.50;15.43;;;;;;;18.50;86.75;100707.96;714371;1202;24545;-71
2021/04/17 10:47:54;;;;;;;19.78;10.20;;;;;;;19.38;85.17;100695.08;714926;1200;24739;-70
2021/04/17 11:03:16;;;;;;;17.80;9.05;;;;;;;19.91;78.89;100710.94;714343;1199;23125;-71
2021/04/17 11:18:41;;;;;;;65.47;25.10;;;;;;;19.18;78.22;100698.27;714593;1200;23250;-70
2021/04/17 11:34:03;;;;;;;11.13;7.15;;;;;;;19.45;73.47;100715.45;714291;1203;26753;-71
2021/04/17 11:49:25;;;;;;;10.50;7.73;;;;;;;19.73;71.83;100719.27;714787;1202;23125;-71
2021/04/17 12:04:46;;;;;;;19.03;11.25;;;;;;;20.17;69.16;100721.07;714117;1203;23119;-70
2021/04/17 12:20:08;;;;;;;19.78;14.25;;;;;;;20.51;66.05;100724.06;714117;1203;23132;-69
2021/04/17 12:35:28;;;;;;;14.68;8.90;;;;;;;21.19;64.88;100708.45;714130;1203;26125;-71
2021/04/17 12:50:49;;;;;;;8.30;5.50;;;;;;;21.16;60.81;100690.19;714257;1203;23154;-70
2021/04/17 13:06:10;;;;;;;10.00;5.80;;;;;;;21.51;58.20;100694.69;714183;1200;23134;-71
2021/04/17 13:21:30;;;;;;;7.35;5.43;;;;;;;19.29;60.04;100696.98;715489;1200;23150;-69
2021/04/17 13:36:51;;;;;;;18.90;7.83;;;;;;;20.06;64.02;100706.41;714012;1199;26016;-70
2021/04/17 13:52:11;;;;;;;12.63;7.50;;;;;;;19.36;65.39;100708.56;714051;1203;26153;-70
2021/04/17 14:07:32;;;;;;;29.20;15.70;;;;;;;20.90;69.31;100712.16;714128;1203;23134;-69
2021/04/17 14:22:53;;;;;;;6.83;5.27;;;;;;;24.99;58.06;100688.72;713936;1202;115109;-69
2021/04/17 14:38:14;;;;;;;20.23;12.27;;;;;;;30.07;51.42;100688.91;713620;1205;114674;-69
2021/04/17 14:53:34;;;;;;;66.63;29.10;;;;;;;34.94;47.42;100677.31;713949;1205;115290;-72
2021/04/17 15:08:54;;;;;;;121.67;59.73;;;;;;;24.69;51.05;100662.60;713848;1202;114041;-70
2021/04/17 15:24:16;;;;;;;54.15;27.60;;;;;;;19.66;54.46;100668.63;713642;1205;114025;-73
2021/04/17 15:39:41;;;;;;;30.80;17.70;;;;;;;19.44;58.40;100676.55;713649;1202;114146;-72
2021/04/17 15:55:03;;;;;;;27.55;17.35;;;;;;;19.88;58.89;100674.86;714854;1203;23138;-73
2021/04/17 16:21:14;;;;;;;83.85;27.68;;;;;;;18.99;59.92;100669.55;715262;1179;26534;-72
2021/04/17 16:36:36;;;;;;;39.83;19.53;;;;;;;18.33;60.74;100670.06;714820;1203;114369;-71
2021/04/17 16:51:56;;;;;;;61.50;35.85;;;;;;;18.38;61.90;100676.48;715431;1176;113667;-72
2021/04/17 17:07:16;;;;;;;25.45;13.00;;;;;;;17.68;62.80;100678.19;714733;1200;113801;-71
2021/04/17 17:22:37;;;;;;;11.97;6.77;;;;;;;15.74;66.21;100724.44;714259;1200;114723;-71
2021/04/17 17:37:58;;;;;;;136.33;56.60;;;;;;;14.50;75.36;100727.17;714422;1178;113493;-71
2021/04/17 17:53:18;;;;;;;59.18;37.98;;;;;;;14.15;83.09;100750.72;714306;1205;114606;-70
2021/04/17 18:08:38;;;;;;;96.90;61.90;;;;;;;13.79;88.93;100763.77;714140;1200;113725;-71
2021/04/17 18:23:59;;;;;;;71.88;35.15;;;;;;;13.33;92.52;100808.41;713948;1202;113681;-70
2021/04/17 18:39:20;;;;;;;44.45;21.43;;;;;;;12.96;96.86;100806.48;714549;1200;114571;-70
2021/04/17 18:54:40;;;;;;;100.10;39.70;;;;;;;12.86;99.32;100801.20;714567;1200;113865;-69
2021/04/17 19:10:03;;;;;;;112.80;49.03;;;;;;;12.73;100.00;100790.10;714473;1200;114032;-72
2021/04/17 19:25:26;;;;;;;118.63;49.33;;;;;;;12.69;100.00;100789.53;714401;1200;114246;-72
2021/04/17 19:40:47;;;;;;;132.73;50.85;;;;;;;12.53;100.00;100778.72;715205;1200;114562;-72
2021/04/17 19:56:08;;;;;;;147.40;58.87;;;;;;;12.21;100.00;100829.73;715521;1199;114199;-71
2021/04/17 20:11:29;;;;;;;113.10;54.53;;;;;;;11.74;100.00;100835.41;715402;1200;114315;-72
2021/04/17 20:26:50;;;;;;;80.75;37.25;;;;;;;11.75;100.00;100831.83;714929;1183;114283;-69
2021/04/17 20:42:17;;;;;;;47.65;24.48;;;;;;;11.52;100.00;100833.74;715403;1200;114983;-70
2021/04/17 20:57:38;;;;;;;43.35;24.95;;;;;;;11.52;100.00;100831.12;715216;1200;114120;-70
2021/04/17 21:12:59;;;;;;;31.40;15.90;;;;;;;11.45;100.00;100796.64;715135;1205;114888;-70
2021/04/17 21:28:20;;;;;;;23.20;13.30;;;;;;;11.28;100.00;100805.92;715068;1200;114167;-69
2021/04/17 21:43:42;;;;;;;93.40;35.60;;;;;;;11.26;100.00;100810.48;721127;1185;114563;-70
2021/04/17 21:59:04;;;;;;;55.25;22.83;;;;;;;11.17;100.00;100804.19;714146;1202;114603;-69
2021/04/17 22:14:24;;;;;;;71.15;25.10;;;;;;;10.89;100.00;100797.76;714185;1203;113907;-71
2021/04/17 22:29:44;;;;;;;49.90;20.60;;;;;;;10.44;100.00;100804.77;714044;1200;114569;-71
2021/04/17 22:45:06;;;;;;;45.48;20.33;;;;;;;10.46;100.00;100797.59;713876;1177;114171;-71
2021/04/17 23:00:27;;;;;;;39.70;18.85;;;;;;;10.19;100.00;100790.11;713786;1203;114962;-70
2021/04/17 23:15:47;;;;;;;29.45;15.85;;;;;;;9.85;100.00;100782.24;713761;1203;115670;-71
2021/04/17 23:31:08;;;;;;;41.83;20.57;;;;;;;9.69;100.00;100784.36;713587;1204;113866;-71
2021/04/17 23:46:30;;;;;;;39.68;21.68;;;;;;;9.52;100.00;100790.91;713615;1200;114610;-71
